Time;durP1;ratioP1;P1;durP2;ratioP2;P2;SDS_P1;SDS_P2;PMS_P1;PMS_P2;Temp;Humidity;BMP_temperature;BMP_pressure;BME280_temperature;BME280_humidity;BME280_pressure;Samples;Min_cycle;Max_cycle;Signal;HPM_P1;HPM_P2
2022/10/18 00:02:07;;;;;;;20.83;13.43;;;16.90;1.00;;;;;;6279607;22;20815;-77
2022/10/18 00:04:36;;;;;;;16.23;12.70;;;16.90;1.00;;;;;;6280846;22;20744;-78
2022/10/18 00:07:04;;;;;;;19.73;13.50;;;16.90;1.00;;;;;;6277940;22;20472;-78
2022/10/18 00:09:31;;;;;;;15.93;13.27;;;16.90;1.00;;;;;;6252896;22;21116;-77
2022/10/18 00:11:59;;;;;;;15.80;13.43;;;16.90;1.00;;;;;;6280482;22;20435;-77
2022/10/18 00:14:26;;;;;;;18.20;13.37;;;17.00;1.00;;;;;;6279808;22;20428;-78
2022/10/18 00:16:53;;;;;;;16.00;12.43;;;17.10;1.00;;;;;;6279644;22;20838;-78
2022/10/18 00:19:22;;;;;;;17.30;11.93;;;17.10;1.00;;;;;;6281409;22;20422;-77
2022/10/18 00:21:50;;;;;;;16.57;12.40;;;17.10;1.00;;;;;;6281147;22;20937;-77
2022/10/18 00:24:20;;;;;;;17.80;14.00;;;17.20;1.00;;;;;;6280907;22;20449;-80
2022/10/18 00:26:46;;;;;;;17.37;12.90;;;17.10;1.00;;;;;;6276202;22;20443;-77
2022/10/18 00:29:16;;;;;;;14.80;12.30;;;17.10;1.00;;;;;;6252082;22;20866;-77
2022/10/18 00:31:44;;;;;;;17.50;13.90;;;17.00;1.00;;;;;;6281288;22;20477;-79
2022/10/18 00:34:14;;;;;;;18.10;13.37;;;17.10;1.00;;;;;;6281779;22;20423;-77
2022/10/18 00:36:42;;;;;;;21.40;14.13;;;17.10;1.00;;;;;;6265945;22;20421;-79
2022/10/18 00:39:15;;;;;;;25.23;14.70;;;17.10;1.00;;;;;;6278340;22;20779;-76
2022/10/18 00:41:46;;;;;;;18.90;14.07;;;17.10;1.00;;;;;;6278516;22;20488;-79
2022/10/18 00:45:01;;;;;;;18.23;13.43;;;17.20;1.00;;;;;;6281151;22;20485;-77
2022/10/18 00:47:29;;;;;;;18.93;14.23;;;17.20;1.00;;;;;;6186720;23;20682;-78
2022/10/18 00:49:58;;;;;;;18.00;13.33;;;17.20;1.00;;;;;;6271613;22;20834;-76
2022/10/18 00:52:35;;;;;;;17.50;14.27;;;17.20;1.00;;;;;;6283668;22;20563;-77
2022/10/18 00:55:03;;;;;;;17.90;14.43;;;17.20;1.00;;;;;;6280559;22;20743;-77
2022/10/18 00:57:32;;;;;;;20.43;13.60;;;17.20;1.00;;;;;;6281128;22;20411;-76
2022/10/18 01:00:06;;;;;;;19.93;15.63;;;17.30;1.00;;;;;;6267079;22;20423;-77
2022/10/18 01:02:37;;;;;;;18.33;14.70;;;17.40;1.00;;;;;;6264858;22;20431;-78
2022/10/18 01:05:08;;;;;;;22.43;15.03;;;17.50;1.00;;;;;;6279680;22;20462;-77
2022/10/18 01:07:52;;;;;;;21.13;16.77;;;17.60;1.00;;;;;;6281105;22;20415;-76
2022/10/18 01:10:27;;;;;;;17.00;13.13;;;17.70;1.00;;;;;;6281636;22;20411;-76
2022/10/18 01:13:06;;;;;;;15.33;12.40;;;17.80;1.00;;;;;;6267882;22;20477;-76
2022/10/18 01:15:40;;;;;;;17.60;12.47;;;17.90;1.00;;;;;;6269256;22;20458;-78
2022/10/18 01:18:16;;;;;;;16.00;11.73;;;18.00;1.00;;;;;;6283532;22;20489;-78
2022/10/18 01:21:08;;;;;;;13.20;10.47;;;18.10;1.00;;;;;;6282564;22;20414;-79
2022/10/18 01:24:10;;;;;;;14.97;11.00;;;18.10;1.00;;;;;;6284011;22;20832;-76
2022/10/18 01:26:52;;;;;;;14.83;10.27;;;18.20;1.00;;;;;;6200642;22;20426;-77
2022/10/18 01:29:31;;;;;;;14.90;10.70;;;18.20;1.00;;;;;;6281146;22;21026;-76
2022/10/18 01:32:03;;;;;;;13.57;10.70;;;18.20;1.00;;;;;;6267049;22;20425;-79
2022/10/18 01:34:59;;;;;;;15.50;10.90;;;18.20;1.00;;;;;;6281011;22;20423;-78
2022/10/18 01:37:31;;;;;;;12.80;10.50;;;18.30;1.00;;;;;;6284539;22;20430;-77
2022/10/18 01:40:03;;;;;;;16.27;11.07;;;18.30;1.00;;;;;;6280757;22;20481;-78
2022/10/18 01:42:32;;;;;;;16.30;12.23;;;18.30;1.00;;;;;;6266601;22;20418;-77
2022/10/18 01:45:02;;;;;;;16.03;12.33;;;18.30;1.00;;;;;;6277583;22;20433;-77
2022/10/18 01:47:31;;;;;;;14.13;11.17;;;18.30;1.00;;;;;;6281566;22;20434;-77
2022/10/18 01:49:59;;;;;;;13.60;11.27;;;18.30;1.00;;;;;;6281220;22;20418;-78
2022/10/18 01:52:27;;;;;;;16.30;12.07;;;18.30;1.00;;;;;;6279242;22;20929;-76
2022/10/18 01:54:55;;;;;;;16.40;12.17;;;18.30;1.00;;;;;;6279557;22;20490;-77
2022/10/18 01:57:29;;;;;;;15.33;11.40;;;18.30;1.00;;;;;;6279128;22;21010;-78
2022/10/18 02:00:04;;;;;;;17.67;12.17;;;18.30;1.00;;;;;;6275772;22;20419;-77
2022/10/18 02:02:44;;;;;;;15.07;12.30;;;18.30;1.00;;;;;;6281982;22;20414;-78
2022/10/18 02:05:17;;;;;;;15.57;12.23;;;18.30;1.00;;;;;;6279737;22;21028;-76
2022/10/18 02:07:52;;;;;;;18.27;13.00;;;18.30;1.00;;;;;;6280622;22;20434;-78
2022/10/18 02:10:24;;;;;;;18.03;12.73;;;18.30;1.00;;;;;;6266178;22;20424;-78
2022/10/18 02:12:54;;;;;;;14.50;11.67;;;18.30;1.00;;;;;;6278927;22;20958;-77
2022/10/18 02:15:24;;;;;;;15.40;12.40;;;18.30;1.00;;;;;;6280286;22;20915;-77
2022/10/18 02:17:55;;;;;;;18.83;13.47;;;18.30;1.00;;;;;;6281392;22;20431;-77
2022/10/18 02:20:25;;;;;;;14.90;13.00;;;18.30;1.00;;;;;;6267668;22;21146;-76
2022/10/18 02:22:55;;;;;;;17.17;13.70;;;18.30;1.00;;;;;;6282178;22;20430;-79
2022/10/18 02:25:25;;;;;;;18.53;13.13;;;18.30;1.00;;;;;;6280946;22;20798;-79
2022/10/18 02:27:53;;;;;;;20.10;14.20;;;18.30;1.00;;;;;;6280757;22;20436;-77
2022/10/18 02:30:25;;;;;;;15.37;13.00;;;18.30;1.00;;;;;;6283219;22;20415;-77
2022/10/18 02:32:59;;;;;;;16.57;13.33;;;18.30;1.00;;;;;;6256195;22;20419;-78
2022/10/18 02:35:32;;;;;;;16.40;12.70;;;18.40;1.00;;;;;;6284544;22;20878;-79
2022/10/18 02:37:59;;;;;;;15.30;13.20;;;18.40;1.00;;;;;;6283018;22;20963;-78
2022/10/18 02:40:26;;;;;;;19.10;13.07;;;18.30;1.00;;;;;;6284183;22;20418;-77
2022/10/18 02:42:55;;;;;;;17.30;13.20;;;18.30;1.00;;;;;;6283949;22;20775;-78
2022/10/18 02:45:23;;;;;;;18.40;13.43;;;18.30;1.00;;;;;;6284565;22;20430;-77
2022/10/18 02:47:50;;;;;;;16.37;12.97;;;18.30;1.00;;;;;;6282678;22;20939;-77
2022/10/18 02:50:19;;;;;;;16.57;13.30;;;18.30;1.00;;;;;;6282686;22;20490;-78
2022/10/18 02:52:45;;;;;;;17.97;14.53;;;18.30;1.00;;;;;;6266767;22;20419;-77
2022/10/18 02:55:12;;;;;;;19.80;13.47;;;18.30;1.00;;;;;;6280715;22;20423;-77
2022/10/18 02:57:39;;;;;;;20.43;13.50;;;18.30;1.00;;;;;;6280438;22;20961;-77
2022/10/18 03:00:07;;;;;;;17.97;13.90;;;18.30;1.00;;;;;;6279355;22;20403;-78
2022/10/18 03:02:35;;;;;;;16.27;13.10;;;18.30;1.00;;;;;;6280588;22;20502;-77
2022/10/18 03:05:04;;;;;;;19.80;13.60;;;18.30;1.00;;;;;;6280198;22;20958;-78
2022/10/18 03:07:33;;;;;;;17.83;13.67;;;18.20;1.00;;;;;;6281836;22;20433;-77
2022/10/18 03:10:00;;;;;;;17.30;13.37;;;18.20;1.00;;;;;;6278968;22;20415;-78
2022/10/18 03:12:28;;;;;;;17.10;14.07;;;18.20;1.00;;;;;;6283228;22;20636;-77
2022/10/18 03:14:55;;;;;;;15.90;13.90;;;18.10;1.00;;;;;;6277763;22;20419;-76
2022/10/18 03:17:22;;;;;;;17.30;13.63;;;18.20;1.00;;;;;;6282018;22;20495;-78
2022/10/18 03:19:48;;;;;;;19.30;15.00;;;18.10;1.00;;;;;;6281875;22;20407;-77
2022/10/18 03:22:15;;;;;;;17.80;13.27;;;18.10;1.00;;;;;;6280877;22;20466;-78
2022/10/18 03:24:45;;;;;;;18.77;15.07;;;18.10;1.00;;;;;;6280090;22;20430;-80
2022/10/18 03:27:12;;;;;;;17.70;14.63;;;18.10;1.00;;;;;;6278351;22;20510;-77
2022/10/18 03:29:39;;;;;;;16.87;13.87;;;18.00;1.00;;;;;;6282544;22;20818;-77
2022/10/18 03:32:13;;;;;;;18.33;14.70;;;17.90;1.00;;;;;;6281994;22;20423;-79
2022/10/18 03:34:41;;;;;;;16.83;13.43;;;17.80;1.00;;;;;;6282881;22;20511;-77
2022/10/18 03:37:08;;;;;;;16.53;13.73;;;17.70;1.00;;;;;;6280854;22;20473;-76
2022/10/18 03:39:35;;;;;;;18.47;13.50;;;17.60;1.00;;;;;;6281006;22;20419;-78
2022/10/18 03:42:04;;;;;;;21.43;18.17;;;17.60;1.00;;;;;;6281310;22;20442;-78
2022/10/18 03:44:31;;;;;;;21.33;18.20;;;17.50;1.00;;;;;;6281292;22;20423;-76
2022/10/18 03:46:58;;;;;;;25.43;20.37;;;17.50;1.00;;;;;;6279617;22;20458;-75
2022/10/18 03:49:25;;;;;;;20.77;16.83;;;17.40;1.00;;;;;;6269129;22;20427;-77
2022/10/18 03:51:52;;;;;;;25.10;15.93;;;17.40;1.00;;;;;;6281196;22;20426;-76
2022/10/18 03:54:19;;;;;;;19.80;15.87;;;17.40;1.00;;;;;;6280933;22;20428;-77
2022/10/18 03:56:46;;;;;;;22.47;16.30;;;17.40;1.00;;;;;;6278739;22;21002;-76
2022/10/18 03:59:16;;;;;;;19.10;15.47;;;17.30;1.00;;;;;;6281274;22;20418;-76
2022/10/18 04:01:43;;;;;;;19.60;16.63;;;17.30;1.00;;;;;;6282237;22;20415;-78
2022/10/18 04:04:10;;;;;;;21.00;16.60;;;17.30;1.00;;;;;;6278764;22;20427;-79
2022/10/18 04:06:39;;;;;;;20.27;15.17;;;17.30;1.00;;;;;;6282586;22;20433;-76
2022/10/18 04:09:06;;;;;;;18.23;16.03;;;17.30;1.00;;;;;;6283128;22;20457;-77
2022/10/18 04:11:33;;;;;;;19.43;16.23;;;17.20;1.00;;;;;;6281403;22;20789;-76
2022/10/18 04:13:59;;;;;;;22.10;16.27;;;17.20;1.00;;;;;;6282204;22;20923;-78
2022/10/18 04:16:29;;;;;;;19.60;16.50;;;17.20;1.00;;;;;;6282471;22;20776;-77
2022/10/18 04:18:56;;;;;;;21.70;18.23;;;17.20;1.00;;;;;;6282632;22;20446;-78
2022/10/18 04:21:22;;;;;;;19.80;16.60;;;17.10;1.00;;;;;;6283619;22;20406;-77
2022/10/18 04:23:50;;;;;;;20.87;16.07;;;17.10;1.00;;;;;;6282423;22;20400;-77
2022/10/18 04:26:17;;;;;;;20.30;15.80;;;17.10;1.00;;;;;;6270458;22;20807;-77
2022/10/18 04:28:45;;;;;;;18.03;14.90;;;17.10;1.00;;;;;;6281413;22;20469;-78
2022/10/18 04:31:14;;;;;;;21.07;16.40;;;17.00;1.00;;;;;;6284056;22;20546;-78
2022/10/18 04:33:44;;;;;;;20.20;17.00;;;17.10;1.00;;;;;;6284968;22;20442;-77
2022/10/18 04:36:11;;;;;;;19.30;15.60;;;17.10;1.00;;;;;;6267368;22;20462;-77
2022/10/18 04:38:39;;;;;;;20.03;15.40;;;17.10;1.00;;;;;;6279211;22;20503;-78
2022/10/18 04:41:06;;;;;;;22.90;18.10;;;17.10;1.00;;;;;;6282144;22;20429;-76
2022/10/18 04:43:34;;;;;;;20.10;15.80;;;17.00;1.00;;;;;;6271446;22;20425;-77
2022/10/18 04:46:01;;;;;;;20.93;15.87;;;17.10;1.00;;;;;;6281139;22;20445;-77
2022/10/18 04:48:28;;;;;;;26.63;18.67;;;17.00;1.00;;;;;;6282501;22;20400;-78
2022/10/18 04:51:00;;;;;;;24.60;18.50;;;17.00;1.00;;;;;;6283226;22;20445;-76
2022/10/18 04:53:26;;;;;;;21.07;15.50;;;17.00;1.00;;;;;;6281606;22;20764;-76
2022/10/18 04:55:56;;;;;;;17.53;13.20;;;17.00;1.00;;;;;;6279888;22;20433;-79
2022/10/18 04:58:29;;;;;;;19.30;14.70;;;17.00;1.00;;;;;;6281429;22;20483;-81
2022/10/18 05:00:58;;;;;;;17.10;14.97;;;17.00;1.00;;;;;;6268085;22;20443;-78
2022/10/18 05:03:26;;;;;;;20.47;13.43;;;16.90;1.00;;;;;;6279759;22;20423;-76
2022/10/18 05:05:54;;;;;;;15.83;11.50;;;16.90;1.00;;;;;;6279136;22;20423;-76
2022/10/18 05:08:22;;;;;;;17.97;12.80;;;16.90;1.00;;;;;;6269329;22;20485;-78
2022/10/18 05:10:50;;;;;;;17.60;12.20;;;16.80;1.00;;;;;;6280001;22;20431;-78
2022/10/18 05:13:17;;;;;;;16.90;12.93;;;16.80;1.00;;;;;;6281473;22;20976;-78
2022/10/18 05:15:46;;;;;;;18.07;14.33;;;16.70;1.00;;;;;;6266016;22;20556;-76
2022/10/18 05:18:14;;;;;;;18.70;13.10;;;16.70;1.00;;;;;;6264591;22;20419;-77
2022/10/18 05:20:41;;;;;;;18.63;13.53;;;16.60;1.00;;;;;;6265469;22;20442;-77
2022/10/18 05:23:09;;;;;;;22.37;14.60;;;16.60;1.00;;;;;;6281390;22;20422;-77
2022/10/18 05:25:39;;;;;;;15.90;13.20;;;16.70;1.00;;;;;;6266113;22;20537;-77
2022/10/18 05:28:06;;;;;;;19.97;14.77;;;16.70;1.00;;;;;;6281091;22;20415;-79
2022/10/18 05:30:33;;;;;;;18.80;13.57;;;16.60;1.00;;;;;;6281846;22;20422;-78
2022/10/18 05:33:00;;;;;;;20.07;14.00;;;16.60;1.00;;;;;;6282361;22;20568;-78
2022/10/18 05:35:27;;;;;;;18.60;14.87;;;16.70;1.00;;;;;;6283311;22;20772;-78
2022/10/18 05:37:54;;;;;;;18.70;13.67;;;16.60;1.00;;;;;;6277699;22;20443;-80
2022/10/18 05:40:21;;;;;;;20.53;14.40;;;16.70;1.00;;;;;;6282273;22;20519;-80
2022/10/18 05:42:54;;;;;;;19.20;14.50;;;16.70;1.00;;;;;;6266458;22;20499;-81
2022/10/18 05:45:23;;;;;;;25.77;15.70;;;16.60;1.00;;;;;;6280677;22;20465;-78
2022/10/18 05:47:50;;;;;;;18.30;14.00;;;16.60;1.00;;;;;;6279616;22;20406;-80
2022/10/18 05:50:18;;;;;;;20.20;15.03;;;16.60;1.00;;;;;;6283921;22;20431;-79
2022/10/18 05:52:46;;;;;;;20.90;16.57;;;16.60;1.00;;;;;;6283478;22;20395;-79
2022/10/18 05:55:13;;;;;;;18.33;14.63;;;16.60;1.00;;;;;;6272242;22;20480;-78
2022/10/18 05:57:41;;;;;;;21.60;15.63;;;16.60;1.00;;;;;;6284172;22;20379;-80
2022/10/18 06:00:11;;;;;;;23.93;17.30;;;16.60;1.00;;;;;;6283467;22;20545;-79
2022/10/18 06:02:38;;;;;;;20.07;16.33;;;16.60;1.00;;;;;;6285686;22;20498;-79
2022/10/18 06:05:06;;;;;;;23.20;16.83;;;16.60;1.00;;;;;;6282481;22;20423;-80
2022/10/18 06:07:37;;;;;;;22.33;18.07;;;16.60;1.00;;;;;;6285050;22;20411;-81
2022/10/18 06:10:05;;;;;;;30.07;24.57;;;16.60;1.00;;;;;;6256554;22;20411;-81
2022/10/18 06:12:36;;;;;;;24.53;17.60;;;16.60;1.00;;;;;;6271147;22;20406;-81
2022/10/18 06:15:07;;;;;;;19.63;16.47;;;16.50;1.00;;;;;;6283335;22;20427;-83
2022/10/18 06:17:37;;;;;;;22.40;17.30;;;16.50;1.00;;;;;;6287469;22;20610;-84
2022/10/18 06:20:04;;;;;;;20.03;14.80;;;16.50;1.00;;;;;;6288008;22;20466;-83
2022/10/18 06:22:32;;;;;;;29.10;25.83;;;16.50;1.00;;;;;;6288486;22;20427;-82
2022/10/18 06:25:06;;;;;;;19.90;15.40;;;16.50;1.00;;;;;;6286090;22;20459;-81
2022/10/18 06:27:43;;;;;;;17.67;14.13;;;16.40;1.00;;;;;;6287449;22;20407;-83
2022/10/18 06:30:42;;;;;;;;;;;;;;;;;;;;;
2022/10/18 06:33:49;;;;;;;;;;;;;;;;;;;;;
2022/10/18 06:36:45;;;;;;;18.30;14.70;;;16.40;1.00;;;;;;6069541;23;50756;-84
2022/10/18 06:39:14;;;;;;;17.80;13.00;;;16.40;1.00;;;;;;6109330;23;20429;-83
2022/10/18 06:41:41;;;;;;;23.90;14.70;;;16.40;1.00;;;;;;6224852;23;20931;-82
2022/10/18 06:44:29;;;;;;;18.40;14.17;;;16.30;1.00;;;;;;6194201;23;20441;-83
2022/10/18 06:46:56;;;;;;;19.87;15.87;;;16.30;1.00;;;;;;6206599;23;20704;-82
2022/10/18 06:49:37;;;;;;;20.57;12.70;;;16.30;1.00;;;;;;6206456;22;20413;-83
2022/10/18 06:55:19;;;;;;;18.93;13.87;;;16.30;1.00;;;;;;6180444;22;20486;-82
2022/10/18 06:58:17;;;;;;;17.07;14.07;;;16.40;1.00;;;;;;6284994;22;20493;-83
2022/10/18 07:01:08;;;;;;;19.20;13.47;;;16.50;1.00;;;;;;6132426;23;20930;-82
2022/10/18 07:04:15;;;;;;;;;;;;;;;;;;;;;
2022/10/18 07:12:19;;;;;;;21.70;14.93;;;16.60;1.00;;;;;;6048979;23;20420;-82
2022/10/18 07:15:23;;;;;;;21.57;14.80;;;16.60;1.00;;;;;;6256379;22;20260;-82
2022/10/18 07:17:50;;;;;;;23.60;15.70;;;16.60;1.00;;;;;;6187781;22;20491;-82
2022/10/18 07:20:20;;;;;;;21.20;16.87;;;16.60;1.00;;;;;;6260075;22;20418;-83
2022/10/18 07:23:34;;;;;;;;;;;;;;;;;;;;;
2022/10/18 07:26:33;;;;;;;;;;;;;;;;;;;;;
2022/10/18 07:29:11;;;;;;;22.70;17.93;;;16.60;1.00;;;;;;6172386;23;41909;-81
2022/10/18 07:31:39;;;;;;;21.60;16.13;;;16.60;1.00;;;;;;6289048;22;20465;-82
2022/10/18 07:34:07;;;;;;;20.80;16.60;;;16.60;1.00;;;;;;6287617;22;20424;-81
2022/10/18 07:36:34;;;;;;;23.17;17.27;;;16.60;1.00;;;;;;6322030;22;20933;-81
2022/10/18 07:39:01;;;;;;;22.50;17.00;;;16.70;1.00;;;;;;6310454;22;20984;-81
2022/10/18 07:41:30;;;;;;;22.60;17.00;;;16.60;1.00;;;;;;6317100;22;20432;-81
2022/10/18 07:44:02;;;;;;;20.20;15.20;;;16.70;1.00;;;;;;6287080;22;20449;-81
2022/10/18 07:46:29;;;;;;;22.20;17.73;;;16.80;1.00;;;;;;6314957;22;20985;-80
2022/10/18 07:48:57;;;;;;;23.10;15.40;;;16.80;1.00;;;;;;6315149;22;20499;-79
2022/10/18 07:51:25;;;;;;;24.40;16.97;;;16.80;1.00;;;;;;6319115;22;20418;-82
2022/10/18 07:53:52;;;;;;;19.27;14.73;;;16.90;1.00;;;;;;6316314;22;20525;-81
2022/10/18 07:56:21;;;;;;;19.23;14.57;;;16.90;1.00;;;;;;6317496;22;20842;-82
2022/10/18 07:58:51;;;;;;;19.67;15.35;;;17.00;1.00;;;;;;6315082;22;20388;-81
2022/10/18 08:01:20;;;;;;;19.60;15.37;;;17.00;1.00;;;;;;6320897;22;20214;-81
2022/10/18 08:03:47;;;;;;;20.50;14.20;;;17.10;1.00;;;;;;6318296;22;20393;-82
2022/10/18 08:06:17;;;;;;;21.53;15.57;;;17.10;1.00;;;;;;6318988;22;20389;-82
2022/10/18 08:08:46;;;;;;;21.87;16.20;;;17.00;1.00;;;;;;6321424;22;20387;-81
2022/10/18 08:11:24;;;;;;;24.13;16.87;;;17.00;1.00;;;;;;6324613;22;20416;-82
2022/10/18 08:14:14;;;;;;;20.53;14.40;;;16.90;1.00;;;;;;6290682;22;20397;-81
2022/10/18 08:16:45;;;;;;;20.33;14.73;;;16.90;1.00;;;;;;6257738;22;20409;-82
2022/10/18 08:19:16;;;;;;;18.30;14.80;;;16.90;1.00;;;;;;6297823;22;20513;-82
2022/10/18 08:21:45;;;;;;;21.17;14.20;;;16.90;1.00;;;;;;6324722;22;20481;-80
2022/10/18 08:24:17;;;;;;;17.50;14.33;;;16.90;1.00;;;;;;6324681;22;20434;-81
2022/10/18 08:26:48;;;;;;;19.83;15.30;;;16.90;1.00;;;;;;6323750;22;20446;-81
2022/10/18 08:29:16;;;;;;;18.37;12.90;;;16.80;1.00;;;;;;6323589;22;20437;-82
2022/10/18 08:31:49;;;;;;;16.53;12.63;;;16.70;1.00;;;;;;6321601;22;20465;-82
2022/10/18 08:34:16;;;;;;;18.67;12.10;;;16.70;1.00;;;;;;6313646;22;20406;-79
2022/10/18 08:40:38;;;;;;;;;;;;;;;;;;;;;
2022/10/18 08:43:49;;;;;;;16.67;11.97;;;16.80;1.00;;;;;;6264465;22;41147;-82
2022/10/18 08:46:35;;;;;;;21.77;15.77;;;16.80;1.00;;;;;;6308766;22;20414;-79
2022/10/18 08:49:27;;;;;;;15.93;11.83;;;16.80;1.00;;;;;;6253272;22;20402;-80
2022/10/18 08:51:57;;;;;;;19.03;12.23;;;16.70;1.00;;;;;;6283846;22;20406;-81
2022/10/18 08:55:08;;;;;;;;;;;;;;;;;;;;;
2022/10/18 08:58:27;;;;;;;16.73;12.73;;;16.60;1.00;;;;;;6304084;22;50684;-81
2022/10/18 09:01:36;;;;;;;;;;;;;;;;;;;;;
2022/10/18 09:04:39;;;;;;;16.23;11.50;;;16.60;1.00;;;;;;6249360;22;41886;-80
2022/10/18 09:07:39;;;;;;;15.77;11.23;;;16.60;1.00;;;;;;6315593;22;20398;-82
2022/10/18 09:10:17;;;;;;;17.93;12.87;;;16.50;1.00;;;;;;6319082;22;20457;-80
2022/10/18 09:13:06;;;;;;;15.53;11.83;;;16.50;1.00;;;;;;6318932;22;20778;-81
2022/10/18 09:15:40;;;;;;;15.23;10.87;;;16.50;1.00;;;;;;6318041;22;20462;-82
2022/10/18 09:18:23;;;;;;;14.67;10.77;;;16.40;1.00;;;;;;6322372;22;20404;-81
2022/10/18 09:20:58;;;;;;;18.10;11.00;;;16.50;1.00;;;;;;6319220;22;20438;-82
2022/10/18 09:23:44;;;;;;;14.20;9.97;;;16.30;1.00;;;;;;6320471;22;20386;-82
2022/10/18 09:26:17;;;;;;;18.17;9.93;;;16.30;1.00;;;;;;6322412;22;20426;-82
2022/10/18 09:29:06;;;;;;;15.20;9.83;;;16.30;1.00;;;;;;6321043;22;20408;-81
2022/10/18 09:31:51;;;;;;;16.53;11.33;;;16.30;1.00;;;;;;6321639;22;20827;-82
2022/10/18 09:34:25;;;;;;;15.57;10.97;;;16.30;1.00;;;;;;6321790;22;20421;-81
2022/10/18 09:36:53;;;;;;;15.10;10.53;;;16.30;1.00;;;;;;6319531;22;20509;-82
2022/10/18 09:39:25;;;;;;;17.13;11.23;;;16.30;1.00;;;;;;6322497;22;20430;-82
2022/10/18 09:42:28;;;;;;;;;;;;;;;;;;;;;
2022/10/18 09:45:11;;;;;;;;;;;;;;;;;;;;;
2022/10/18 09:47:58;;;;;;;;;;;;;;;;;;;;;
2022/10/18 09:51:22;;;;;;;;;;;;;;;;;;;;;
2022/10/18 09:54:48;;;;;;;;;;;;;;;;;;;;;
2022/10/18 10:07:05;;;;;;;16.20;11.20;;;16.40;1.00;;;;;;6072707;23;20443;-84
2022/10/18 10:09:40;;;;;;;17.83;12.33;;;16.40;1.00;;;;;;6263297;22;20237;-85
2022/10/18 10:12:28;;;;;;;17.60;11.47;;;16.30;1.00;;;;;;6318544;22;20445;-88
2022/10/18 10:15:06;;;;;;;21.20;11.90;;;16.40;1.00;;;;;;6318423;22;20831;-85
2022/10/18 10:17:34;;;;;;;18.97;13.17;;;16.40;1.00;;;;;;6321465;22;20418;-86
2022/10/18 10:20:16;;;;;;;17.33;12.57;;;16.40;1.00;;;;;;6317765;22;20513;-84
2022/10/18 10:22:46;;;;;;;17.53;11.40;;;16.30;1.00;;;;;;6315843;22;20442;-85
2022/10/18 10:25:25;;;;;;;16.90;12.03;;;16.30;1.00;;;;;;6319817;22;20517;-85
2022/10/18 10:27:52;;;;;;;16.73;12.67;;;16.40;1.00;;;;;;6319402;22;20494;-85
2022/10/18 10:30:29;;;;;;;16.07;11.47;;;16.40;1.00;;;;;;6316223;22;20418;-85
2022/10/18 10:32:56;;;;;;;16.67;11.37;;;16.40;1.00;;;;;;6319202;22;20852;-87
2022/10/18 10:35:29;;;;;;;14.07;10.20;;;16.40;1.00;;;;;;6319679;22;20502;-86
2022/10/18 10:37:56;;;;;;;17.50;11.60;;;16.40;1.00;;;;;;6319695;22;20417;-86
2022/10/18 10:40:29;;;;;;;17.90;11.60;;;16.30;1.00;;;;;;6322809;22;20425;-87
2022/10/18 10:43:08;;;;;;;17.80;13.50;;;16.30;1.00;;;;;;6319640;22;20438;-86
2022/10/18 10:45:38;;;;;;;17.40;11.93;;;16.40;1.00;;;;;;6324920;22;21240;-85
2022/10/18 10:48:15;;;;;;;18.00;12.90;;;16.40;1.00;;;;;;6323373;22;20445;-86
2022/10/18 10:51:18;;;;;;;;;;;;;;;;;;;;;
2022/10/18 10:54:27;;;;;;;;;;;;;;;;;;;;;
2022/10/18 11:00:58;;;;;;;17.07;12.93;;;16.50;1.00;;;;;;6137764;23;20402;-84
2022/10/18 11:07:42;;;;;;;;;;;;;;;;;;;;;
2022/10/18 11:10:50;;;;;;;;;;;;;;;;;;;;;
2022/10/18 11:13:52;;;;;;;19.37;13.83;;;16.60;1.00;;;;;;6176431;23;50016;-86
2022/10/18 11:20:00;;;;;;;;;;;;;;;;;;;;;
2022/10/18 11:23:00;;;;;;;19.73;13.87;;;16.60;1.00;;;;;;6042883;23;50721;-86
2022/10/18 11:29:20;;;;;;;19.50;13.40;;;16.70;1.00;;;;;;6140225;23;20489;-80
2022/10/18 11:31:54;;;;;;;19.33;13.70;;;16.70;1.00;;;;;;6307405;22;20377;-82
2022/10/18 11:34:48;;;;;;;21.43;15.33;;;16.70;1.00;;;;;;6319363;22;20441;-81
2022/10/18 11:37:41;;;;;;;16.20;11.63;;;16.60;1.00;;;;;;6318636;22;20403;-81
2022/10/18 11:40:26;;;;;;;18.93;15.17;;;16.60;1.00;;;;;;6316510;22;20422;-80
2022/10/18 11:43:01;;;;;;;17.43;12.73;;;16.60;1.00;;;;;;6318459;22;20496;-80
2022/10/18 11:45:40;;;;;;;19.30;13.67;;;16.60;1.00;;;;;;6318781;22;20852;-81
2022/10/18 11:48:37;;;;;;;20.83;14.63;;;16.60;1.00;;;;;;6289767;22;20410;-80
2022/10/18 11:51:28;;;;;;;18.70;12.90;;;16.60;1.00;;;;;;6300297;22;20815;-82
2022/10/18 11:54:16;;;;;;;19.87;13.90;;;16.60;1.00;;;;;;6292311;22;20437;-83
2022/10/18 11:56:50;;;;;;;16.57;12.60;;;16.60;1.00;;;;;;6315851;22;20457;-81
2022/10/18 11:59:38;;;;;;;17.93;13.20;;;16.50;1.00;;;;;;6312694;22;20390;-81
2022/10/18 12:02:33;;;;;;;17.00;12.20;;;16.50;1.00;;;;;;6312437;22;20417;-81
2022/10/18 12:05:08;;;;;;;24.63;21.77;;;16.50;1.00;;;;;;6314987;22;20505;-81
2022/10/18 12:08:05;;;;;;;20.23;13.50;;;16.50;1.00;;;;;;6303680;22;20425;-81
2022/10/18 12:10:35;;;;;;;18.57;13.50;;;16.60;1.00;;;;;;6301134;22;20428;-84
2022/10/18 12:13:08;;;;;;;16.10;13.13;;;16.70;1.00;;;;;;6314899;22;20921;-81
2022/10/18 12:15:47;;;;;;;17.13;13.67;;;16.60;1.00;;;;;;6301692;22;20434;-81
2022/10/18 12:18:50;;;;;;;18.20;12.63;;;16.70;1.00;;;;;;6315628;22;20433;-81
2022/10/18 12:24:28;;;;;;;17.70;12.30;;;16.70;1.00;;;;;;6197322;22;20781;-82
2022/10/18 12:27:01;;;;;;;16.73;12.70;;;16.60;1.00;;;;;;6314365;22;20492;-81
2022/10/18 12:29:53;;;;;;;17.23;12.57;;;16.70;1.00;;;;;;6298328;22;20481;-81
2022/10/18 12:32:25;;;;;;;17.03;12.90;;;16.60;1.00;;;;;;6300863;22;20946;-80
2022/10/18 12:34:58;;;;;;;18.50;13.50;;;16.60;1.00;;;;;;6314333;22;20415;-81
2022/10/18 12:37:49;;;;;;;22.23;13.83;;;16.60;1.00;;;;;;6314271;22;20553;-81
2022/10/18 12:40:21;;;;;;;18.00;13.03;;;16.60;1.00;;;;;;6312333;22;20406;-80
2022/10/18 12:42:50;;;;;;;19.00;12.50;;;16.60;1.00;;;;;;6315193;22;20388;-80
2022/10/18 12:45:28;;;;;;;15.83;10.87;;;16.70;1.00;;;;;;6315598;22;20414;-81
2022/10/18 12:48:01;;;;;;;15.33;12.20;;;16.60;1.00;;;;;;6314227;22;20438;-80
2022/10/18 12:50:37;;;;;;;15.30;10.60;;;16.60;1.00;;;;;;6316318;22;20902;-83
2022/10/18 12:53:21;;;;;;;15.07;11.10;;;16.50;1.00;;;;;;6313246;22;20426;-80
2022/10/18 12:55:52;;;;;;;15.67;12.17;;;16.50;1.00;;;;;;6296407;22;20505;-78
2022/10/18 12:58:32;;;;;;;15.37;10.87;;;16.50;1.00;;;;;;6313507;22;20374;-78
2022/10/18 13:01:12;;;;;;;14.73;11.17;;;16.60;1.00;;;;;;6313203;22;20583;-81
2022/10/18 13:03:50;;;;;;;16.43;12.07;;;16.60;1.00;;;;;;6315561;22;20433;-79
2022/10/18 13:06:22;;;;;;;16.80;12.27;;;16.70;1.00;;;;;;6316053;22;20421;-81
2022/10/18 13:09:17;;;;;;;17.33;12.30;;;16.80;1.00;;;;;;6313290;22;20900;-82
2022/10/18 13:11:44;;;;;;;15.20;11.83;;;16.90;1.00;;;;;;6316662;22;20416;-82
2022/10/18 13:14:52;;;;;;;15.17;12.50;;;16.90;1.00;;;;;;6315386;22;20425;-83
2022/10/18 13:17:31;;;;;;;15.40;12.20;;;16.90;1.00;;;;;;6312928;22;20493;-80
2022/10/18 13:20:11;;;;;;;16.53;12.60;;;16.90;1.00;;;;;;6314521;22;20512;-79
2022/10/18 13:22:55;;;;;;;16.00;11.23;;;16.90;1.00;;;;;;6317388;22;20509;-81
2022/10/18 13:25:28;;;;;;;17.90;11.30;;;16.80;1.00;;;;;;6316876;22;20417;-81
2022/10/18 13:28:06;;;;;;;18.47;12.93;;;16.80;1.00;;;;;;6301575;22;20433;-80
2022/10/18 13:30:47;;;;;;;15.90;12.47;;;16.90;1.00;;;;;;6318195;22;20508;-81
2022/10/18 13:33:33;;;;;;;16.70;13.23;;;16.90;1.00;;;;;;6300790;22;20952;-80
2022/10/18 13:36:02;;;;;;;19.97;14.33;;;17.00;1.00;;;;;;6314040;22;20464;-80
2022/10/18 13:39:17;;;;;;;16.60;11.53;;;17.20;1.00;;;;;;6298870;22;20972;-80
2022/10/18 13:42:17;;;;;;;16.20;12.90;;;17.20;1.00;;;;;;6257796;22;20417;-81
2022/10/18 13:44:48;;;;;;;16.83;11.27;;;17.30;1.00;;;;;;6317332;22;20426;-80
2022/10/18 13:47:32;;;;;;;16.57;12.47;;;17.20;1.00;;;;;;6317762;22;20386;-82
2022/10/18 13:50:36;;;;;;;17.40;12.27;;;17.30;1.00;;;;;;6317907;22;20454;-81
2022/10/18 13:53:44;;;;;;;14.73;12.07;;;17.30;1.00;;;;;;6323941;22;20393;-81
2022/10/18 13:56:48;;;;;;;17.50;11.63;;;17.50;1.00;;;;;;6230707;23;20441;-80
2022/10/18 13:59:51;;;;;;;16.87;12.03;;;17.70;1.00;;;;;;6212696;23;20423;-82
2022/10/18 14:02:58;;;;;;;14.57;9.90;;;18.00;1.00;;;;;;6300273;22;20607;-82
2022/10/18 14:05:50;;;;;;;13.70;10.77;;;18.20;1.00;;;;;;6317007;22;20397;-81
2022/10/18 14:08:29;;;;;;;33.53;30.93;;;18.10;1.00;;;;;;6319296;22;20825;-83
2022/10/18 14:11:18;;;;;;;14.13;10.60;;;18.00;1.00;;;;;;6271959;22;20406;-81
2022/10/18 14:14:49;;;;;;;;;;;;;;;;;;;;;
2022/10/18 14:18:10;;;;;;;;;;;;;;;;;;;;;
2022/10/18 14:20:51;;;;;;;13.80;9.80;;;17.50;1.00;;;;;;6195985;22;49382;-83
2022/10/18 14:24:10;;;;;;;;;;;;;;;;;;;;;
2022/10/18 14:26:40;;;;;;;17.37;11.87;;;17.70;1.00;;;;;;6247727;22;50411;-81
2022/10/18 14:29:20;;;;;;;14.87;10.60;;;17.80;1.00;;;;;;6286768;22;20438;-83
2022/10/18 14:32:01;;;;;;;16.90;11.70;;;17.70;1.00;;;;;;6306242;22;21360;-82